Mankato Municipal Airport

About
Name: Mankato Municipal Airport
Identifier:  MKT/KMKT
Owner:  City of Mankato
Public/Private:  Public
Local Time:  17. Sep 06:03 CDT
Description: Mankato Regional Airport is a public airport located five miles northeast of the central business district of Mankato, a city in Blue Earth County, Minnesota, United States. This airport is publicly owned by the city of Mankato. The airport is home to Northstar Aviation and Minnesota State University's flight training program. Base to Mn composite Squadron Mn 048 Civil Air Patrol
Source: Wikipedia
Location
Runways
Identifier Length (m/ft) Surface
15/33 6,600/6,600 Concrete
4/22 4,000/4,000 Asphalt
Statistics
Flights per Day:
0 flights
Distance: 517km (321mi)
Flights delayed:
0% (0 flights per day delayed)
Delay Average: 16 minutes
Current Weather
 22 C (Humidity: 94%)
  11kt (20km/h / 12mph) from 160°
  16km (10 mi.)
 
 METAR KMKT 170956Z AUTO 16011KT 10SM CLR 22/21 A2999 RMK AO2 SLP150 T02170206

Current Delays

Departures
N/A
Arrivals
N/A

Destinations

Top Destinations
Airport Flights
per week
Seats
per week
  Kenosha (ENW) 0 - 0 0
  Columbus (OSU) 0 - 0 0

Airlines & Planes

Top Airlines
Airline Flights
per Day
Seats
per Day
Gama Aviation 0 -
Top Plane Types
Model Flights Seats
Beech B300 Super King Air 350 0.1/day - 0